This is the latest recevied weather packets stored in our database for station/object TONGUE. If no packets are shown the sender has not sent any weather packets the latest 10 day(s).
| Time | Temp. | Humidity | Pressure | Rain* | Wind** | Luminosity | Snow |
|---|---|---|---|---|---|---|---|
| 1777923603 | 18.33° C | 70% | 0 hPa | - | - | - | - |
| 1777923003 | 18.33° C | 73% | 0 hPa | - | - | - | - |
| 1777922403 | 17.22° C | 73% | 0 hPa | - | - | - | - |
| 1777921803 | 17.22° C | 74% | 0 hPa | - | - | - | - |
| 1777921203 | 16.67° C | 79% | 0 hPa | - | - | - | - |
| 1777920603 | 17.22° C | 79% | 0 hPa | - | - | - | - |
| 1777920003 | 16.11° C | 79% | 0 hPa | - | - | - | - |
| 1777919403 | 16.11° C | 81% | 0 hPa | - | - | - | - |
| 1777918803 | 16.11° C | 81% | 0 hPa | - | - | - | - |
| 1777918203 | 16.11° C | 81% | 0 hPa | - | - | - | - |
| 1777917603 | 15.56° C | 80% | 0 hPa | - | - | - | - |
| 1777917003 | 15.56° C | 80% | 0 hPa | - | - | - | - |
| 1777916403 | 16.11° C | 80% | 0 hPa | - | - | - | - |
| 1777915803 | 15° C | 86% | 0 hPa | - | - | - | - |
| 1777915203 | 15.56° C | 78% | 0 hPa | - | - | - | - |
| 1777914603 | 15.56° C | 80% | 0 hPa | - | - | - | - |
| 1777914004 | 15° C | 80% | 0 hPa | - | - | - | - |
| 1777913403 | 15.56° C | 80% | 0 hPa | - | - | - | - |
| 1777912803 | 15° C | 82% | 0 hPa | - | - | - | - |
| 1777912203 | 15.56° C | 79% | 0 hPa | - | - | - | - |
| 1777911603 | 14.44° C | 84% | 0 hPa | - | - | - | - |
| 1777911003 | 14.44° C | 80% | 0 hPa | - | - | - | - |
| 1777910404 | 13.89° C | 85% | 0 hPa | - | - | - | - |
| 1777909803 | 13.89° C | 88% | 0 hPa | - | - | - | - |
| 1777909203 | 13.89° C | 86% | 0 hPa | - | - | - | - |
* Rain since midnight (hover to see other rain measurements)
** Current wind speed in m/s (hover to see current wind gust speed)